ДАННЫЕ О ПОГОДЕ

ВЧЕРА
Time Темп. Т росы. Влаж. Давл.
00:02 9.1 4.9 75 1014.7
00:12 8.8 4.6 75 1014.7
00:21 8.7 4.7 76 1014.7
00:32 8.6 4.6 76 1014.7
00:42 8.5 4.5 76 1014.6
01:02 8.2 4.4 77 1014.5
01:12 8.1 4.3 77 1014.5
01:22 8.1 4.5 78 1014.4
01:32 7.9 4.3 78 1014.3
01:43 7.8 4.2 78 1014.3
01:52 7.6 4 78 1014.2
02:02 7.3 3.9 79 1014.1
02:12 7.1 3.7 79 1014
02:23 7 3.6 79 1013.9
02:33 6.9 3.5 79 1013.8
02:42 6.9 3.7 80 1013.7
02:53 6.8 3.6 80 1013.6
03:03 6.8 3.6 80 1013.6
03:13 6.9 3.7 80 1013.4
03:23 7 3.6 79 1013.4
03:33 7.1 3.7 79 1013.1
03:43 7.2 3.8 79 1013.1
03:53 7.3 3.9 79 1013
04:04 7.3 3.9 79 1013
04:13 7.4 4 79 1012.9
04:23 7.4 4 79 1012.8
04:33 7.4 3.8 78 1012.7
04:44 7.4 3.8 78 1012.6
04:54 7.4 3.8 78 1012.6
05:19 7.1 3.7 79 1012.4
05:29 7.1 3.7 79 1012.4
05:39 7.1 3.7 79 1012.5
05:49 7 3.6 79 1012.4
05:59 6.9 3.5 79 1012.3
06:09 6.9 3.5 79 1012.4
06:19 7 3.6 79 1012.4
06:30 7.1 3.5 78 1012.5
06:39 7.1 3.3 77 1012.4
06:49 7.1 3.3 77 1012.4
07:00 7.1 3.2 76 1012.4
07:10 7.1 3.2 76 1012.3
07:19 7.2 3.1 75 1012.3
07:29 7.3 3 74 1012.4
07:40 7.3 3.2 75 1012.4
07:50 7.3 3.2 75 1012.4
08:00 7.3 3.2 75 1012.4
08:10 7.4 3.5 76 1012.5
08:20 7.5 3.4 75 1012.6
08:30 7.6 3.5 75 1012.5
08:40 7.7 3.6 75 1012.5
08:51 7.9 3.7 75 1012.4
09:00 8 3.8 75 1012.5
09:10 8.2 4 75 1012.6
09:21 8.3 4.1 75 1012.6
09:31 8.6 4.2 74 1012.7
09:41 8.8 4 72 1012.6
09:50 9.1 3.7 69 1012.5
10:06 9.4 3.8 68 1012.4
10:16 9.4 3.6 67 1012.3
10:26 9.5 3 64 1012.3
10:36 9.7 3.4 65 1012
10:56 10.2 2.3 58 1011.7
11:07 10.3 1.9 56 1011.5
11:16 10.3 2.2 57 1011.3
11:26 10.3 2.2 57 1011.1
11:36 10.5 2.6 58 1010.9
11:47 10.6 2.9 59 1010.7
11:57 10.8 2.4 56 1010.6
12:06 10.8 2.4 56 1010.5
12:17 10.8 2.4 56 1010.4
12:27 10.8 2.4 56 1010.2
12:37 10.9 2.5 56 1010.1
12:47 10.9 2.2 55 1009.9
12:57 10.8 1.9 54 1009.8
13:07 10.8 1.6 53 1009.6
13:17 10.8 1.6 53 1009.6
13:27 10.8 1.3 52 1009.4
13:38 10.9 1.7 53 1009.3
13:47 11 1.5 52 1009.2
13:57 11 1.5 52 1009.1
14:08 11 1.8 53 1008.9
14:18 11.1 1.9 53 1008.8
14:28 11.1 2.4 55 1008.7
14:38 10.9 2.5 56 1008.7
14:48 10.8 2.6 57 1008.6
14:58 10.7 2.8 58 1008.6
15:08 10.6 2.7 58 1008.5
15:19 10.5 2.6 58 1008.4
15:28 10.4 2.5 58 1008.4
15:38 10.3 2.6 59 1008.4
15:48 10.1 2.5 59 1008.3
15:59 9.9 2.3 59 1008.3
16:09 9.7 2.3 60 1008.3
16:18 9.6 2.2 60 1008.4
16:29 9.4 2.3 61 1008.3
16:49 9.2 2.3 62 1008.2
16:59 9.1 2.4 63 1008.3
17:09 8.9 2.2 63 1008.3
17:29 8.8 1.9 62 1008.4
17:40 8.6 1.7 62 1008.3
17:49 8.5 1.9 63 1008.4
17:59 8.4 2 64 1008.4
18:09 8.3 1.9 64 1008.5
18:20 8.2 2.2 66 1008.4
18:30 8 2 66 1008.3
18:40 7.9 2.2 67 1008.2
18:50 7.7 2.2 68 1008.2
19:00 7.4 2.1 69 1008.1
19:10 7.1 2 70 1007.9
19:20 6.9 2 71 1007.9
19:30 6.7 1.8 71 1007.7
19:40 6.5 1.8 72 1007.5
19:50 6.4 1.9 73 1007.5
20:01 6.2 1.7 73 1007.6
20:11 6 1.7 74 1007.5
20:20 5.8 1.5 74 1007.5
20:30 5.7 1.6 75 1007.4
20:41 5.5 1.4 75 1007.4
20:51 5.4 1.5 76 1007.3
21:01 5.3 1.4 76 1007.3
21:11 5.3 1.4 76 1007.2
21:21 5.2 1.3 76 1007.1
21:31 5.1 1.2 76 1006.9
21:41 4.9 1 76 1006.8
21:52 4.7 0.8 76 1006.8
22:02 4.6 0.9 77 1006.6
22:11 4.5 0.8 77 1006.6
22:22 4.4 0.7 77 1006.6
22:32 4.3 0.6 77 1006.5
22:42 4.2 0.5 77 1006.6
22:57 4.1 0.4 77 1006.6
23:07 4 0.5 78 1006.4
23:17 3.9 0.4 78 1006.3
23:27 3.9 0.4 78 1006.1
23:38 3.8 0.3 78 1006.1
23:48 3.7 0.2 78 1005.9
23:57 3.7 0.2 78 1005.7

СТАТИСТИКА ЗА ДЕНЬ

2019-12-11
TЕМПЕРАТУРА
СРЕДНЯЯ
7.9
МАКСИМАЛЬНАЯ
11.1
14:18
МИНИМАЛЬНАЯ
3.7
23:48
ДАВЛЕНИЕ
СРЕДНЯЯ
1010.4
МАКСИМАЛЬНАЯ
1014.7
00:02
МИНИМАЛЬНАЯ
1005.7
23:57
ТОЧКА РОСЫ
СРЕДНЯЯ
2.7
МАКСИМАЛЬНАЯ
4.9
00:02
МИНИМАЛЬНАЯ
0.2
23:48
ВЛАЖНОСТЬ
СРЕДНЯЯ
70
МАКСИМАЛЬНАЯ
80
02:42
МИНИМАЛЬНАЯ
52
13:27
TЕМПЕРАТУРА (°C)
МИНИМАЛЬНАЯ
3.7
МАКСИМАЛЬНАЯ
11.1
СРЕДНЯЯ
7.9
ДАВЛЕНИЕ (hpa)
МИНИМАЛЬНАЯ
1005.7
МАКСИМАЛЬНАЯ
1014.7
СРЕДНЯЯ
1010.4
УСТРОЙСТВО